Time;durP1;ratioP1;P1;durP2;ratioP2;P2;SDS_P1;SDS_P2;PMS_P1;PMS_P2;Temp;Humidity;BMP_temperature;BMP_pressure;BME280_temperature;BME280_humidity;BME280_pressure;Samples;Min_cycle;Max_cycle;Signal;HPM_P1;HPM_P2
2023/01/18 00:03:27;;;;;;;0.40;0.22;;;-1.70;99.90;;;;;;20911389;28;20040;-61
2023/01/18 00:13:29;;;;;;;107.47;4.13;;;-1.80;99.90;;;;;;20911212;28;20064;-58
2023/01/18 00:23:31;;;;;;;56.50;3.22;;;-1.80;99.90;;;;;;20909990;28;20056;-58
2023/01/18 00:33:32;;;;;;;224.52;7.30;;;-1.70;99.90;;;;;;20937104;28;20033;-60
2023/01/18 00:43:40;;;;;;;2.47;0.70;;;-1.70;99.90;;;;;;20913275;28;20033;-60
2023/01/18 00:53:44;;;;;;;0.90;0.70;;;-1.70;99.90;;;;;;20962209;28;20044;-60
2023/01/18 01:34:46;;;;;;;1.13;0.70;;;-2.30;99.90;;;;;;20886984;28;20045;-60
2023/01/18 01:44:50;;;;;;;135.20;6.25;;;-2.20;99.90;;;;;;20904059;28;20040;-60
2023/01/18 01:55:04;;;;;;;2.38;1.38;;;-2.00;99.90;;;;;;20902676;28;20036;-60
2023/01/18 02:05:08;;;;;;;191.38;8.95;;;-1.80;99.90;;;;;;20902812;28;20163;-60
2023/01/18 02:15:10;;;;;;;289.40;12.57;;;-1.70;99.90;;;;;;20884021;28;20037;-60
2023/01/18 02:25:29;;;;;;;117.78;5.85;;;-1.60;99.90;;;;;;20901981;28;20040;-60
2023/01/18 02:35:56;;;;;;;4.47;2.22;;;-1.60;99.90;;;;;;20901637;28;20037;-57
2023/01/18 02:56:29;;;;;;;0.95;0.50;;;-1.70;99.90;;;;;;20900597;28;20041;-60
2023/01/18 03:06:32;;;;;;;0.70;0.40;;;-1.90;99.90;;;;;;20881914;28;20044;-58
2023/01/18 03:16:57;;;;;;;0.50;0.38;;;-2.20;99.90;;;;;;20911398;28;20041;-60
2023/01/18 03:37:40;;;;;;;0.82;0.38;;;-2.90;99.90;;;;;;20970440;28;20037;-60
2023/01/18 03:47:42;;;;;;;1.17;0.77;;;-3.30;99.90;;;;;;20935944;28;20028;-60
2023/01/18 03:57:52;;;;;;;1.17;0.40;;;-3.50;99.90;;;;;;20902914;28;20044;-59
2023/01/18 04:07:53;;;;;;;1.13;0.57;;;-3.80;99.90;;;;;;20976943;28;20032;-59
2023/01/18 04:17:55;;;;;;;1.65;0.65;;;-4.00;99.90;;;;;;20993327;28;20040;-59
2023/01/18 04:27:56;;;;;;;0.95;0.65;;;-3.90;99.90;;;;;;20958017;28;20103;-59
2023/01/18 04:37:58;;;;;;;1.10;0.43;;;-3.90;99.90;;;;;;20943068;28;20044;-59
2023/01/18 04:48:00;;;;;;;1.15;0.55;;;-4.30;99.90;;;;;;20909231;28;20095;-59
2023/01/18 04:58:01;;;;;;;1.50;0.80;;;-4.70;99.90;;;;;;20908037;28;20545;-59
2023/01/18 05:08:03;;;;;;;1.75;0.63;;;-5.10;99.90;;;;;;20906014;28;20375;-60
2023/01/18 05:18:06;;;;;;;1.90;0.75;;;-5.20;99.90;;;;;;20905670;28;20111;-60
2023/01/18 05:28:08;;;;;;;3.35;0.60;;;-5.20;99.90;;;;;;20888400;28;20068;-59
2023/01/18 05:38:10;;;;;;;0.85;0.50;;;-5.30;99.90;;;;;;20886531;28;20029;-59
2023/01/18 05:48:12;;;;;;;3.88;0.95;;;-5.20;99.90;;;;;;20903620;28;20083;-59
2023/01/18 05:58:13;;;;;;;3.25;0.85;;;-5.40;99.90;;;;;;20885438;28;20478;-59
2023/01/18 06:08:15;;;;;;;1.08;0.50;;;-5.20;99.90;;;;;;20887958;28;20041;-60
2023/01/18 06:18:16;;;;;;;1.35;0.60;;;-4.80;99.90;;;;;;20928819;28;20106;-59
2023/01/18 06:28:19;;;;;;;0.90;0.47;;;-4.70;99.90;;;;;;20912245;28;20029;-59
2023/01/18 06:38:21;;;;;;;1.20;0.30;;;-4.70;99.90;;;;;;20906604;28;20037;-59
2023/01/18 06:48:24;;;;;;;0.70;0.30;;;-4.90;99.90;;;;;;20910685;28;20478;-60
2023/01/18 06:58:26;;;;;;;0.68;0.40;;;-5.20;99.90;;;;;;20950918;28;20554;-59
2023/01/18 07:08:34;;;;;;;0.90;0.30;;;-5.40;99.90;;;;;;20964514;28;20094;-59
2023/01/18 07:18:35;;;;;;;1.80;0.30;;;-5.50;99.90;;;;;;20998056;28;20040;-60
2023/01/18 07:28:37;;;;;;;0.80;0.25;;;-5.50;99.90;;;;;;20997768;28;20032;-59
2023/01/18 07:38:39;;;;;;;1.17;0.50;;;-5.50;99.90;;;;;;20929127;28;20025;-60
2023/01/18 07:48:40;;;;;;;0.75;0.35;;;-5.40;99.90;;;;;;20924889;28;20387;-60
2023/01/18 07:58:43;;;;;;;1.52;0.50;;;-4.80;99.90;;;;;;20960127;28;20037;-60
2023/01/18 08:08:44;;;;;;;1.55;0.80;;;-4.00;99.90;;;;;;20912285;28;20033;-60
2023/01/18 08:18:49;;;;;;;2.85;1.52;;;-3.00;99.90;;;;;;20940930;28;20044;-59
2023/01/18 08:28:51;;;;;;;2.75;1.63;;;-1.90;99.90;;;;;;20993220;28;20037;-60
2023/01/18 08:38:55;;;;;;;3.22;1.90;;;-1.90;99.90;;;;;;20926223;28;20036;-60
2023/01/18 08:49:00;;;;;;;4.57;2.10;;;-1.90;99.90;;;;;;20908028;28;20033;-60
2023/01/18 08:59:02;;;;;;;3.95;1.90;;;-1.60;99.90;;;;;;20890237;28;20095;-60
2023/01/18 09:09:04;;;;;;;2.00;1.20;;;-0.20;99.90;;;;;;20907265;28;20532;-59
2023/01/18 09:19:06;;;;;;;1.60;0.98;;;0.10;99.90;;;;;;20906199;28;20025;-59
2023/01/18 09:29:08;;;;;;;0.50;0.30;;;1.10;99.90;;;;;;20887126;28;20037;-58
2023/01/18 09:39:09;;;;;;;0.80;0.35;;;1.90;99.90;;;;;;20905387;28;20021;-60
2023/01/18 09:49:53;;;;;;;1.58;1.00;;;2.30;99.90;;;;;;20903798;28;20378;-61
2023/01/18 09:59:58;;;;;;;1.50;1.00;;;3.20;99.90;;;;;;20896948;28;20052;-60
2023/01/18 10:10:02;;;;;;;1.10;0.70;;;3.60;99.90;;;;;;20902026;28;20037;-60
2023/01/18 10:20:37;;;;;;;1.05;0.55;;;4.60;99.90;;;;;;20901829;28;20037;-60
2023/01/18 10:31:00;;;;;;;0.95;0.50;;;6.00;99.90;;;;;;20901522;28;20032;-60
2023/01/18 10:41:02;;;;;;;0.80;0.50;;;6.10;99.90;;;;;;20885547;28;20033;-60
2023/01/18 10:51:05;;;;;;;2.63;1.70;;;4.80;99.90;;;;;;20917479;28;20028;-61
2023/01/18 11:01:18;;;;;;;5.30;3.40;;;3.90;99.90;;;;;;20907230;28;20044;-60
2023/01/18 11:21:49;;;;;;;3.38;2.20;;;3.00;99.90;;;;;;20970980;28;20036;-59
2023/01/18 11:31:53;;;;;;;21.02;4.97;;;3.20;99.90;;;;;;20979095;28;20082;-59
2023/01/18 11:42:20;;;;;;;6.50;4.10;;;4.00;99.90;;;;;;20932171;28;20410;-59
2023/01/18 11:52:53;;;;;;;5.63;3.70;;;3.70;99.90;;;;;;20943007;28;20462;-59
2023/01/18 12:03:01;;;;;;;18.60;4.63;;;3.60;99.90;;;;;;20924483;28;20145;-57
2023/01/18 12:13:21;;;;;;;4.00;2.75;;;4.20;99.90;;;;;;20995584;28;20037;-58
2023/01/18 12:23:53;;;;;;;5.20;3.47;;;3.90;99.90;;;;;;20976874;28;20112;-58
2023/01/18 12:34:19;;;;;;;4.07;2.75;;;2.70;99.90;;;;;;20967787;28;20040;-59
2023/01/18 12:44:49;;;;;;;4.53;3.42;;;3.40;99.90;;;;;;20826786;28;20033;-58
2023/01/18 12:54:54;;;;;;;4.38;3.13;;;4.70;99.90;;;;;;20987705;28;20094;-60
2023/01/18 13:05:12;;;;;;;5.03;3.28;;;5.40;99.90;;;;;;20985625;28;20099;-59
2023/01/18 13:15:22;;;;;;;2.88;2.33;;;7.20;99.90;;;;;;20907275;28;20044;-59
2023/01/18 13:25:33;;;;;;;;;;;6.90;99.90;;;;;;20907575;28;20028;-59
2023/01/18 13:35:35;;;;;;;3.13;2.37;;;5.90;99.90;;;;;;20904099;28;19917;-56
2023/01/18 13:46:17;;;;;;;3.95;2.53;;;4.60;99.90;;;;;;20904155;28;20040;-58
2023/01/18 13:56:28;;;;;;;3.83;2.33;;;2.80;99.90;;;;;;20904432;28;20061;-56
2023/01/18 14:06:37;;;;;;;2.78;1.70;;;2.00;99.90;;;;;;20955752;28;20032;-55
2023/01/18 14:17:12;;;;;;;6.65;4.00;;;1.60;99.90;;;;;;20985776;28;20025;-57
2023/01/18 14:27:19;;;;;;;4.65;3.40;;;1.30;99.90;;;;;;20985043;28;20032;-59
2023/01/18 14:37:28;;;;;;;5.50;3.67;;;1.70;99.90;;;;;;20931415;28;20036;-57
2023/01/18 14:48:34;;;;;;;4.97;3.15;;;2.10;99.90;;;;;;20920934;28;20489;-59
2023/01/18 14:58:50;;;;;;;5.60;3.33;;;0.90;99.90;;;;;;20984347;28;20041;-57
2023/01/18 15:08:51;;;;;;;4.85;2.95;;;-0.10;99.90;;;;;;20947035;28;20033;-59
2023/01/18 15:18:54;;;;;;;5.65;3.33;;;-0.40;99.90;;;;;;20931584;28;20039;-59
2023/01/18 15:29:07;;;;;;;5.20;3.15;;;-0.80;99.90;;;;;;20994421;28;20481;-59
2023/01/18 15:39:11;;;;;;;4.40;2.67;;;-1.10;99.90;;;;;;20955302;28;20037;-59
2023/01/18 15:49:14;;;;;;;4.05;2.15;;;-1.70;99.90;;;;;;20926388;28;20033;-58
2023/01/18 15:59:22;;;;;;;3.67;2.05;;;-2.10;99.90;;;;;;20913408;28;20041;-58
2023/01/18 16:09:24;;;;;;;4.22;2.08;;;-2.60;99.90;;;;;;20916614;28;20395;-58
2023/01/18 16:19:27;;;;;;;3.17;1.75;;;-2.90;99.90;;;;;;20947240;28;20036;-58
2023/01/18 16:29:39;;;;;;;5.07;2.53;;;-3.10;99.90;;;;;;20933908;28;20090;-58
2023/01/18 16:39:40;;;;;;;6.25;3.10;;;-3.10;99.90;;;;;;20913059;28;20041;-58
2023/01/18 16:49:43;;;;;;;2.95;2.00;;;-3.40;99.90;;;;;;20946871;28;20036;-58
2023/01/18 16:59:45;;;;;;;2.63;1.58;;;-3.20;99.90;;;;;;20929917;28;20047;-59
2023/01/18 17:09:46;;;;;;;3.72;1.85;;;-3.10;99.90;;;;;;20908236;28;20394;-58
2023/01/18 17:19:50;;;;;;;2.97;1.70;;;-3.10;99.90;;;;;;20906301;28;20494;-58
2023/01/18 17:29:52;;;;;;;2.60;1.50;;;-2.80;99.90;;;;;;20887905;28;20033;-57
2023/01/18 17:39:54;;;;;;;2.70;1.33;;;-3.10;99.90;;;;;;20886721;28;20083;-58
2023/01/18 17:49:57;;;;;;;3.03;1.33;;;-3.20;99.90;;;;;;20902990;28;20033;-58
2023/01/18 17:59:59;;;;;;;2.67;1.38;;;-3.10;99.90;;;;;;20903694;28;20212;-58
2023/01/18 18:10:02;;;;;;;2.40;1.00;;;-3.30;99.90;;;;;;20900016;28;20067;-58
2023/01/18 18:20:06;;;;;;;1.92;1.00;;;-3.60;99.90;;;;;;20943724;28;20036;-56
2023/01/18 18:30:08;;;;;;;3.50;1.27;;;-3.40;99.90;;;;;;20951288;28;20043;-59
2023/01/18 18:40:10;;;;;;;1.75;1.13;;;-3.30;99.90;;;;;;20935026;28;20413;-55
2023/01/18 18:50:12;;;;;;;2.70;1.20;;;-3.30;99.90;;;;;;20943943;28;20032;-56
2023/01/18 19:00:14;;;;;;;4.50;1.40;;;-3.40;99.90;;;;;;20971980;28;20053;-56
2023/01/18 19:10:16;;;;;;;2.35;0.93;;;-3.60;99.90;;;;;;20951967;28;20048;-55
2023/01/18 19:20:21;;;;;;;2.97;1.40;;;-3.70;99.90;;;;;;20959548;28;20112;-55
2023/01/18 19:30:23;;;;;;;3.67;1.40;;;-3.70;99.90;;;;;;20997650;28;20029;-60
2023/01/18 19:40:25;;;;;;;1.67;0.90;;;-3.50;99.90;;;;;;20945493;28;20375;-55
2023/01/18 19:50:28;;;;;;;2.45;1.02;;;-3.30;99.90;;;;;;20944313;28;20041;-56
2023/01/18 20:00:31;;;;;;;1.30;0.80;;;-3.20;99.90;;;;;;20898551;28;20044;-57
2023/01/18 20:10:32;;;;;;;1.92;0.90;;;-2.90;99.90;;;;;;20994186;28;20032;-56
2023/01/18 20:20:34;;;;;;;1.58;0.73;;;-2.60;99.90;;;;;;20949107;28;20094;-55
2023/01/18 20:30:36;;;;;;;1.90;0.88;;;-2.40;99.90;;;;;;20913834;28;20028;-56
2023/01/18 20:40:39;;;;;;;2.70;1.08;;;-2.40;99.90;;;;;;20939088;28;20040;-57
2023/01/18 20:50:41;;;;;;;2.20;0.88;;;-2.50;99.90;;;;;;20955542;28;20044;-56
2023/01/18 21:00:42;;;;;;;1.42;0.82;;;-2.80;99.90;;;;;;20991089;28;20060;-57
2023/01/18 21:10:44;;;;;;;2.05;0.75;;;-2.90;99.90;;;;;;20937517;28;20033;-58
2023/01/18 21:20:56;;;;;;;1.77;0.50;;;-3.00;99.90;;;;;;20953684;28;20028;-59
2023/01/18 21:30:58;;;;;;;1.00;0.50;;;-3.10;99.90;;;;;;20988305;28;20032;-57
2023/01/18 21:45:53;;;;;;;1.27;0.60;;;-3.10;99.90;;;;;;20930992;28;20086;-57
2023/01/18 22:01:43;;;;;;;2.40;0.90;;;-2.80;99.90;;;;;;20916930;28;20044;-56
2023/01/18 22:11:45;;;;;;;2.45;1.15;;;-2.80;99.90;;;;;;20984260;28;20110;-54
2023/01/18 22:21:48;;;;;;;2.88;1.58;;;-2.60;99.90;;;;;;20985575;28;20436;-57
2023/01/18 22:31:51;;;;;;;3.97;2.13;;;-2.40;99.90;;;;;;20951386;28;20039;-55
2023/01/18 22:41:53;;;;;;;3.03;1.63;;;-2.60;99.90;;;;;;20919771;28;20037;-56
2023/01/18 22:51:55;;;;;;;4.13;1.65;;;-2.60;99.90;;;;;;20974969;28;20082;-59
2023/01/18 23:01:57;;;;;;;2.75;1.70;;;-2.50;99.90;;;;;;20984367;28;20041;-58
2023/01/18 23:11:58;;;;;;;3.20;1.95;;;-2.40;99.90;;;;;;20898698;28;20040;-56
2023/01/18 23:22:05;;;;;;;5.25;2.80;;;-2.20;99.90;;;;;;20898063;28;20041;-55
2023/01/18 23:32:07;;;;;;;3.17;2.38;;;-2.30;99.90;;;;;;20914827;28;20029;-58
